Aeroporto :







RITROVATECI SU...

 
LOGIN :

Iscrizione | Disclaimer

   EN    FR    IT 

 









Sommario :    VFR   VFR Marginale   IFR   IFR Intensivo   IFR Molto Intensivo
Visibilità : 
Base nubi : 
>= 8 km
>= 3000ft
5 / 8 km
1000 / 3000 ft
1500m / 5 km
500 / 1000 ft
800 / 1500m
200 / 500 ft
< 800m
< 200 ft
Simboli :   Temporali  Nebbia  Neve Forte  Precipitazioni Forti  Vento > 20 kt






- Altitudine del aeroporto : 522 ft
- Codice IATA : YBG


CYBG - CFB Bagotville

ULTIMO METAR :
  • 090100Z 22005KT 25SM FEW080 OVC110 M00/M07 A2990 RMK AC2AC6 SLP138

METARs OBSOLETI :
  • 090000Z 13009KT 25SM OVC080 M04/M06 A2989 RMK AC8 SLP133
  • 082300Z 10008KT 25SM BKN060 OVC085 M04/M06 A2994 RMK SC5AC3 SLP150

TAF TAF CYBG
Valido dal 09 a 00 ore il 10 a 00 ore UTC


082330Z 0900/0924 09008KT P6SM FEW030 OVC080
FM090500 09005KT P6SM BKN030 OVC060
FM091400 09005KT P6SM OVC040
BECMG 0921/0923 09012KT RMK NXT FCST BY 090600Z



MetMap, La meteo Aeronautica in un colpo d'occhio ! - Copyright ORBIFLY Dicembre 2007 - Disclaimer

ORBIFLY MET'MAP TEAM :

Programmazione e sviluppo : Alexandra Zaïnal
Concezione : Baudouin d'Aumeries
Aiuto per la programmazione : Marc-Olivier Méhu
Supporto tecnico e logistico : Manuel Goepfert
Aiuto per la traduzione : Arnaldo La Scala

Contatto : metmap@orbifly.com




FONTI E CREDITI :

   NOAA